Terminal Aerodrome Forecast
Issued by NWS

Home | Current Version | Previous Version | Text Only | Print | Product List | Glossary On
Versions: 1 2 3 4 5 6 7 8 9 10 11 12 13 14 15 16
000
FTUS45 KTFX 011700 RRA
TAFCTB
TAF
KCTB 011741Z 0118/0218 19007KT P6SM SCT200
     FM012100 18014G21KT P6SM SCT200
     FM020100 18015G22KT P6SM BKN150
     FM020500 22011G18KT P6SM SCT050 BKN090
     FM021300 35017G26KT 2SM -SN BLSN SCT006 OVC015=

USA.gov is the U.S. government's official web portal to all federal, state and local government web resources and services.